createdAt,value
2019-05-09T00:00:07.269Z,9.35
2019-05-09T00:01:07.287Z,9.31
2019-05-09T00:02:07.244Z,9.32
2019-05-09T00:03:07.234Z,9.28
2019-05-09T00:04:07.219Z,9.24
2019-05-09T00:05:07.224Z,9.29
2019-05-09T00:06:07.218Z,9.20
2019-05-09T00:07:07.221Z,9.28
2019-05-09T00:08:07.174Z,9.31
2019-05-09T00:09:07.162Z,9.31
2019-05-09T00:10:07.175Z,9.23
2019-05-09T00:11:07.196Z,9.26
2019-05-09T00:12:07.168Z,9.29
2019-05-09T00:13:07.158Z,9.21
2019-05-09T00:14:07.109Z,9.24
2019-05-09T00:15:07.096Z,9.24
2019-05-09T00:16:07.109Z,9.23
2019-05-09T00:17:07.092Z,9.24
2019-05-09T00:18:07.099Z,9.21
2019-05-09T00:19:07.050Z,9.20
2019-05-09T00:20:07.039Z,9.18
2019-05-09T00:21:07.026Z,9.21
2019-05-09T00:22:07.033Z,9.18
2019-05-09T00:23:07.042Z,9.13
2019-05-09T00:24:07.026Z,9.18
2019-05-09T00:25:06.992Z,9.20
2019-05-09T00:26:06.973Z,9.17
2019-05-09T00:27:06.957Z,9.17
2019-05-09T00:28:06.988Z,9.18
2019-05-09T00:29:06.963Z,9.17
2019-05-09T00:30:06.923Z,9.21
2019-05-09T00:31:06.927Z,9.21
2019-05-09T00:32:06.904Z,9.05
2019-05-09T00:33:06.902Z,9.14
2019-05-09T00:34:06.893Z,9.11
2019-05-09T00:35:06.886Z,9.11
2019-05-09T00:36:06.868Z,9.08
2019-05-09T00:37:06.847Z,9.05
2019-05-09T00:38:06.836Z,9.14
2019-05-09T00:39:06.844Z,9.08
2019-05-09T00:40:06.834Z,9.14
2019-05-09T00:41:06.841Z,9.10
2019-05-09T00:42:06.796Z,9.15
2019-05-09T00:43:06.791Z,9.14
2019-05-09T00:44:06.781Z,9.11
2019-05-09T00:45:06.777Z,9.11
2019-05-09T00:46:06.795Z,9.11
2019-05-09T00:47:06.778Z,9.17
2019-05-09T00:48:06.734Z,9.02
2019-05-09T00:49:06.717Z,9.08
2019-05-09T00:50:06.717Z,9.13
2019-05-09T00:51:06.703Z,9.04
2019-05-09T00:52:06.698Z,9.08
2019-05-09T00:53:06.710Z,9.04
2019-05-09T00:54:06.660Z,9.10
2019-05-09T00:55:06.655Z,9.10
2019-05-09T00:56:06.638Z,9.04
2019-05-09T00:57:06.736Z,9.08
2019-05-09T00:58:06.633Z,9.02
2019-05-09T00:59:06.612Z,8.96
2019-05-09T01:00:06.596Z,9.04
2019-05-09T01:01:06.590Z,9.10
2019-05-09T01:02:06.595Z,9.10
2019-05-09T01:03:06.617Z,9.05
2019-05-09T01:04:06.575Z,9.04
2019-05-09T01:05:06.545Z,9.05
2019-05-09T01:06:06.530Z,9.05
2019-05-09T01:07:06.526Z,9.05
2019-05-09T01:08:06.551Z,8.95
2019-05-09T01:09:06.499Z,9.10
2019-05-09T01:10:06.510Z,9.05
2019-05-09T01:11:14.610Z,9.08
2019-05-09T01:12:07.468Z,9.10
2019-05-09T01:13:06.455Z,8.98
2019-05-09T01:14:06.462Z,8.96
2019-05-09T01:15:06.437Z,8.92
2019-05-09T01:16:06.438Z,8.92
2019-05-09T01:17:06.405Z,9.02
2019-05-09T01:18:06.396Z,8.91
2019-05-09T01:19:06.405Z,8.98
2019-05-09T01:20:06.379Z,8.95
2019-05-09T01:21:06.375Z,8.92
2019-05-09T01:22:06.374Z,8.96
2019-05-09T01:23:06.347Z,9.04
2019-05-09T01:24:06.334Z,8.94
2019-05-09T01:25:06.345Z,8.94
2019-05-09T01:26:06.359Z,8.98
2019-05-09T01:27:06.312Z,8.94
2019-05-09T01:28:06.304Z,8.95
2019-05-09T01:29:06.270Z,8.95
2019-05-09T01:30:06.303Z,8.92
2019-05-09T01:31:06.255Z,8.92
2019-05-09T01:32:06.265Z,8.98
2019-05-09T01:33:06.251Z,8.91
2019-05-09T01:34:06.217Z,8.92
2019-05-09T01:35:06.217Z,8.96
2019-05-09T01:36:06.262Z,8.91
2019-05-09T01:37:06.193Z,8.94
2019-05-09T01:38:06.183Z,8.96
2019-05-09T01:39:06.185Z,8.91
2019-05-09T01:40:07.131Z,8.96
2019-05-09T01:41:06.158Z,8.95
2019-05-09T01:42:06.132Z,8.95
2019-05-09T01:43:06.132Z,8.92
2019-05-09T01:44:06.121Z,8.95
2019-05-09T01:45:06.117Z,8.96
2019-05-09T01:46:06.093Z,8.86
2019-05-09T01:47:06.078Z,8.92
2019-05-09T01:48:06.065Z,8.95
2019-05-09T01:49:06.077Z,8.92
2019-05-09T01:50:06.067Z,8.81
2019-05-09T01:51:06.025Z,8.83
2019-05-09T01:52:06.025Z,8.79
2019-05-09T01:53:06.002Z,8.83
2019-05-09T01:54:06.000Z,8.76
2019-05-09T01:55:05.996Z,8.77
2019-05-09T01:56:06.000Z,8.73
2019-05-09T01:57:06.027Z,8.76
2019-05-09T01:58:05.955Z,8.73
2019-05-09T01:59:05.941Z,8.77
2019-05-09T02:00:05.942Z,8.80
2019-05-09T02:01:05.932Z,8.71
2019-05-09T02:02:08.617Z,8.74
2019-05-09T02:03:05.926Z,8.70
2019-05-09T02:04:05.893Z,8.77
2019-05-09T02:05:05.881Z,8.68
2019-05-09T02:06:05.886Z,8.63
2019-05-09T02:07:05.867Z,8.77
2019-05-09T02:08:05.868Z,8.65
2019-05-09T02:09:05.831Z,8.76
2019-05-09T02:10:05.825Z,8.66
2019-05-09T02:11:05.805Z,8.65
2019-05-09T02:12:05.804Z,8.73
2019-05-09T02:13:05.818Z,8.61
2019-05-09T02:14:05.797Z,8.56
2019-05-09T02:15:05.770Z,8.55
2019-05-09T02:16:05.753Z,8.62
2019-05-09T02:17:05.738Z,8.62
2019-05-09T02:18:05.740Z,8.61
2019-05-09T02:19:05.743Z,8.62
2019-05-09T02:20:05.733Z,8.63
2019-05-09T02:21:05.699Z,8.68
2019-05-09T02:22:05.693Z,8.63
2019-05-09T02:23:05.675Z,8.71
2019-05-09T02:24:05.689Z,8.63
2019-05-09T02:25:05.675Z,8.61
2019-05-09T02:26:05.672Z,8.61
2019-05-09T02:27:05.633Z,8.58
2019-05-09T02:28:05.614Z,8.63
2019-05-09T02:29:05.608Z,8.56
2019-05-09T02:30:06.076Z,8.55
2019-05-09T02:31:05.638Z,8.61
2019-05-09T02:32:05.573Z,8.58
2019-05-09T02:33:05.597Z,8.45
2019-05-09T02:34:05.575Z,8.48
2019-05-09T02:35:05.583Z,8.48
2019-05-09T02:36:05.543Z,8.45
2019-05-09T02:37:05.541Z,8.36
2019-05-09T02:38:05.505Z,8.41
2019-05-09T02:39:08.647Z,8.37
2019-05-09T02:40:05.490Z,8.28
2019-05-09T02:41:08.378Z,8.28
2019-05-09T02:42:10.808Z,8.28
2019-05-09T02:43:05.479Z,8.33
2019-05-09T02:44:09.004Z,8.37
2019-05-09T02:45:08.185Z,8.44
2019-05-09T02:46:05.438Z,8.25
2019-05-09T02:47:05.416Z,8.37
2019-05-09T02:48:05.408Z,8.34
2019-05-09T02:49:08.545Z,8.28
2019-05-09T02:50:08.541Z,8.30
2019-05-09T02:51:05.429Z,8.30
2019-05-09T02:52:08.554Z,8.25
2019-05-09T02:53:08.004Z,8.29
2019-05-09T02:54:05.352Z,8.20
2019-05-09T02:55:05.340Z,8.23
2019-05-09T02:56:05.305Z,8.23
2019-05-09T02:57:05.317Z,8.23
2019-05-09T02:58:08.107Z,8.28
2019-05-09T02:59:05.291Z,8.30
2019-05-09T03:00:08.301Z,8.20
2019-05-09T03:01:08.009Z,8.16
2019-05-09T03:02:05.244Z,8.10
2019-05-09T03:03:08.366Z,8.01
2019-05-09T03:04:08.204Z,7.98
2019-05-09T03:05:05.248Z,7.93
2019-05-09T03:06:05.222Z,7.92
2019-05-09T03:07:05.191Z,7.98
2019-05-09T03:08:05.923Z,7.98
2019-05-09T03:09:05.187Z,7.93
2019-05-09T03:10:05.166Z,8.11
2019-05-09T03:11:05.151Z,7.98
2019-05-09T03:12:22.937Z,8.00
2019-05-09T03:13:09.137Z,8.00
2019-05-09T03:14:05.111Z,7.98
2019-05-09T03:15:05.110Z,8.01
2019-05-09T03:16:08.274Z,8.01
2019-05-09T03:17:05.086Z,8.00
2019-05-09T03:18:08.552Z,8.00
2019-05-09T03:19:05.086Z,7.92
2019-05-09T03:20:05.040Z,7.92
2019-05-09T03:21:05.050Z,7.97
2019-05-09T03:22:05.031Z,8.01
2019-05-09T03:23:05.026Z,8.04
2019-05-09T03:24:05.058Z,7.95
2019-05-09T03:25:05.002Z,7.97
2019-05-09T03:26:04.979Z,7.95
2019-05-09T03:27:04.975Z,7.80
2019-05-09T03:28:04.987Z,7.86
2019-05-09T03:29:04.959Z,7.83
2019-05-09T03:30:04.974Z,7.79
2019-05-09T03:31:04.929Z,7.79
2019-05-09T03:32:08.778Z,7.87
2019-05-09T03:33:04.907Z,7.83
2019-05-09T03:34:04.898Z,7.83
2019-05-09T03:35:04.903Z,7.69
2019-05-09T03:36:04.894Z,7.68
2019-05-09T03:37:04.892Z,7.63
2019-05-09T03:38:04.849Z,7.60
2019-05-09T03:39:04.837Z,7.61
2019-05-09T03:40:04.870Z,7.58
2019-05-09T03:41:04.834Z,7.60
2019-05-09T03:42:04.834Z,7.71
2019-05-09T03:43:04.840Z,7.58
2019-05-09T03:44:04.780Z,7.53
2019-05-09T03:45:04.773Z,7.60
2019-05-09T03:46:04.797Z,7.49
2019-05-09T03:47:04.769Z,7.48
2019-05-09T03:48:04.730Z,7.35
2019-05-09T03:49:04.725Z,7.40
2019-05-09T03:50:04.714Z,7.39
2019-05-09T03:51:04.733Z,7.43
2019-05-09T03:52:04.725Z,7.48
2019-05-09T03:53:04.694Z,7.39
2019-05-09T03:54:04.707Z,7.48
2019-05-09T03:55:04.657Z,7.46
2019-05-09T03:56:04.669Z,7.43
2019-05-09T03:57:04.645Z,7.34
2019-05-09T03:58:04.638Z,7.35
2019-05-09T03:59:04.631Z,7.46
2019-05-09T04:00:04.637Z,7.46
2019-05-09T04:01:04.586Z,7.46
2019-05-09T04:02:04.607Z,7.52
2019-05-09T04:03:04.575Z,7.61
2019-05-09T04:04:04.575Z,7.64
2019-05-09T04:05:04.571Z,7.64
2019-05-09T04:06:04.544Z,7.63
2019-05-09T04:07:04.541Z,7.68
2019-05-09T04:08:04.510Z,7.72
2019-05-09T04:09:04.509Z,7.63
2019-05-09T04:10:04.505Z,7.80
2019-05-09T04:11:04.477Z,7.82
2019-05-09T04:12:04.480Z,7.83
2019-05-09T04:13:04.474Z,7.79
2019-05-09T04:14:04.446Z,7.80
2019-05-09T04:15:05.196Z,7.80
2019-05-09T04:16:04.443Z,7.85
2019-05-09T04:17:04.451Z,7.82
2019-05-09T04:18:04.460Z,7.82
2019-05-09T04:19:04.396Z,7.83
2019-05-09T04:20:04.382Z,7.80
2019-05-09T04:21:04.384Z,7.85
2019-05-09T04:22:04.392Z,7.89
2019-05-09T04:23:04.374Z,7.87
2019-05-09T04:24:04.342Z,7.98
2019-05-09T04:25:04.326Z,7.90
2019-05-09T04:26:04.325Z,8.00
2019-05-09T04:27:04.315Z,7.98
2019-05-09T04:28:04.311Z,7.97
2019-05-09T04:29:04.319Z,7.98
2019-05-09T04:30:06.361Z,7.95
2019-05-09T04:31:04.262Z,7.92
2019-05-09T04:32:04.253Z,7.92
2019-05-09T04:33:04.249Z,7.98
2019-05-09T04:34:04.241Z,7.95
2019-05-09T04:35:04.253Z,7.80
2019-05-09T04:36:04.215Z,7.85
2019-05-09T04:37:04.200Z,7.80
2019-05-09T04:38:04.194Z,7.83
2019-05-09T04:39:04.178Z,7.72
2019-05-09T04:40:04.185Z,7.75
2019-05-09T04:41:04.153Z,7.74
2019-05-09T04:42:05.737Z,7.71
2019-05-09T04:43:12.520Z,7.69
2019-05-09T04:44:13.335Z,7.57
2019-05-09T04:45:05.814Z,7.50
2019-05-09T04:46:04.120Z,7.64
2019-05-09T04:47:04.160Z,7.55
2019-05-09T04:48:04.072Z,7.61
2019-05-09T04:49:04.066Z,7.57
2019-05-09T04:50:04.070Z,7.64
2019-05-09T04:51:04.073Z,7.53
2019-05-09T04:52:04.053Z,7.58
2019-05-09T04:53:04.027Z,7.58
2019-05-09T04:54:04.029Z,7.58
2019-05-09T04:55:03.997Z,7.60
2019-05-09T04:56:03.998Z,7.57
2019-05-09T04:57:03.993Z,7.63
2019-05-09T04:58:03.986Z,7.69
2019-05-09T04:59:03.952Z,7.57
2019-05-09T05:00:03.946Z,7.67
2019-05-09T05:01:03.928Z,7.60
2019-05-09T05:02:03.954Z,7.67
2019-05-09T05:03:03.930Z,7.67
2019-05-09T05:04:03.944Z,7.69
2019-05-09T05:05:03.888Z,7.64
2019-05-09T05:06:03.896Z,7.61
2019-05-09T05:07:03.863Z,7.53
2019-05-09T05:08:03.880Z,7.53
2019-05-09T05:09:03.860Z,7.49
2019-05-09T05:10:03.835Z,7.49
2019-05-09T05:11:03.816Z,7.46
2019-05-09T05:12:03.820Z,7.43
2019-05-09T05:13:03.817Z,7.46
2019-05-09T05:14:03.802Z,7.52
2019-05-09T05:15:03.794Z,7.43
2019-05-09T05:16:03.790Z,7.50
2019-05-09T05:17:08.540Z,7.53
2019-05-09T05:18:04.795Z,7.71
2019-05-09T05:19:03.733Z,7.69
2019-05-09T05:20:03.745Z,7.85
2019-05-09T05:21:03.727Z,7.82
2019-05-09T05:22:03.696Z,7.83
2019-05-09T05:23:03.711Z,7.97
2019-05-09T05:24:03.671Z,8.16
2019-05-09T05:25:03.684Z,8.52
2019-05-09T05:26:03.670Z,8.68
2019-05-09T05:27:03.666Z,9.05
2019-05-09T05:28:03.628Z,9.23
2019-05-09T05:29:03.630Z,9.35
2019-05-09T05:30:03.606Z,9.33
2019-05-09T05:31:03.610Z,9.29
2019-05-09T05:32:03.604Z,9.21
2019-05-09T05:33:03.571Z,9.05
2019-05-09T05:34:03.612Z,9.10
2019-05-09T05:35:03.559Z,9.04
2019-05-09T05:36:03.537Z,9.04
2019-05-09T05:37:03.534Z,9.14
2019-05-09T05:38:03.551Z,9.11
2019-05-09T05:39:03.535Z,9.23
2019-05-09T05:40:03.505Z,9.28
2019-05-09T05:41:03.482Z,9.31
2019-05-09T05:42:03.479Z,9.35
2019-05-09T05:43:03.480Z,9.28
2019-05-09T05:44:03.482Z,9.32
2019-05-09T05:45:03.485Z,9.35
2019-05-09T05:46:03.427Z,9.38
2019-05-09T05:47:03.416Z,9.33
2019-05-09T05:48:03.418Z,9.43
2019-05-09T05:49:03.422Z,9.39
2019-05-09T05:50:03.404Z,9.57
2019-05-09T05:51:03.433Z,9.54
2019-05-09T05:52:03.360Z,9.64
2019-05-09T05:53:03.356Z,9.68
2019-05-09T05:54:03.359Z,9.66
2019-05-09T05:55:03.343Z,9.72
2019-05-09T05:56:03.349Z,9.75
2019-05-09T05:57:03.303Z,9.79
2019-05-09T05:58:03.361Z,9.72
2019-05-09T05:59:03.308Z,9.81
2019-05-09T06:00:03.311Z,9.81
2019-05-09T06:01:04.535Z,9.91
2019-05-09T06:02:03.276Z,9.96
2019-05-09T06:03:03.235Z,10.05
2019-05-09T06:04:03.224Z,10.14
2019-05-09T06:05:03.218Z,10.23
2019-05-09T06:06:03.212Z,10.33
2019-05-09T06:07:03.215Z,10.44
2019-05-09T06:08:03.178Z,10.59
2019-05-09T06:09:03.172Z,10.60
2019-05-09T06:10:03.163Z,10.66
2019-05-09T06:11:03.181Z,10.68
2019-05-09T06:12:03.156Z,10.53
2019-05-09T06:13:03.148Z,10.55
2019-05-09T06:14:08.688Z,10.56
2019-05-09T06:15:03.111Z,10.66
2019-05-09T06:16:03.091Z,10.60
2019-05-09T06:17:03.113Z,10.67
2019-05-09T06:18:03.110Z,10.61
2019-05-09T06:19:03.077Z,10.74
2019-05-09T06:20:03.054Z,10.71
2019-05-09T06:21:03.044Z,10.81
2019-05-09T06:22:03.028Z,10.84
2019-05-09T06:23:03.030Z,10.76
2019-05-09T06:24:03.021Z,10.86
2019-05-09T06:25:03.054Z,10.88
2019-05-09T06:26:02.986Z,10.84
2019-05-09T06:27:02.972Z,10.89
2019-05-09T06:28:02.959Z,10.94
2019-05-09T06:29:02.982Z,11.02
2019-05-09T06:30:02.963Z,10.99
2019-05-09T06:31:02.974Z,11.11
2019-05-09T06:32:02.917Z,11.09
2019-05-09T06:33:05.150Z,11.18
2019-05-09T06:34:03.241Z,11.18
2019-05-09T06:35:02.937Z,11.18
2019-05-09T06:36:02.898Z,11.17
2019-05-09T06:37:03.528Z,11.25
2019-05-09T06:38:02.901Z,11.29
2019-05-09T06:39:02.876Z,11.33
2019-05-09T06:40:02.936Z,11.42
2019-05-09T06:41:02.832Z,11.47
2019-05-09T06:42:02.847Z,11.51
2019-05-09T06:43:02.843Z,11.51
2019-05-09T06:44:14.196Z,11.52
2019-05-09T06:45:02.794Z,11.61
2019-05-09T06:46:02.782Z,11.64
2019-05-09T06:47:02.770Z,11.73
2019-05-09T06:48:02.769Z,11.70
2019-05-09T06:49:20.544Z,11.67
2019-05-09T06:50:03.719Z,11.70
2019-05-09T06:51:02.719Z,11.79
2019-05-09T06:52:02.710Z,11.83
2019-05-09T06:53:02.696Z,11.95
2019-05-09T06:54:02.701Z,11.98
2019-05-09T06:55:02.655Z,11.94
2019-05-09T06:56:02.722Z,12.02
2019-05-09T06:57:02.659Z,11.91
2019-05-09T06:58:02.637Z,12.05
2019-05-09T06:59:02.662Z,11.96
2019-05-09T07:00:02.631Z,12.21
2019-05-09T07:01:02.591Z,12.16
2019-05-09T07:02:02.578Z,12.17
2019-05-09T07:03:02.575Z,12.28
2019-05-09T07:04:02.568Z,12.23
2019-05-09T07:05:02.575Z,12.14
2019-05-09T07:06:02.532Z,12.09
2019-05-09T07:07:02.526Z,12.20
2019-05-09T07:08:02.508Z,12.24
2019-05-09T07:09:02.531Z,12.41
2019-05-09T07:10:02.500Z,12.39
2019-05-09T07:11:02.517Z,12.47
2019-05-09T07:12:02.477Z,12.53
2019-05-09T07:13:02.451Z,12.53
2019-05-09T07:14:02.449Z,12.57
2019-05-09T07:15:02.445Z,12.59
2019-05-09T07:16:02.461Z,12.65
2019-05-09T07:17:02.430Z,12.62
2019-05-09T07:18:02.432Z,12.65
2019-05-09T07:19:02.386Z,12.68
2019-05-09T07:20:02.376Z,12.59
2019-05-09T07:21:02.394Z,12.74
2019-05-09T07:22:02.391Z,12.74
2019-05-09T07:23:02.339Z,12.78
2019-05-09T07:24:02.342Z,12.78
2019-05-09T07:25:06.491Z,12.83
2019-05-09T07:26:02.311Z,12.92
2019-05-09T07:27:02.306Z,12.90
2019-05-09T07:28:02.326Z,12.97
2019-05-09T07:29:02.326Z,12.95
2019-05-09T07:30:02.413Z,12.92
2019-05-09T07:31:02.258Z,13.00
2019-05-09T07:32:02.253Z,13.05
2019-05-09T07:33:02.241Z,12.96
2019-05-09T07:34:02.251Z,12.92
2019-05-09T07:35:02.217Z,12.96
2019-05-09T07:36:02.195Z,13.03
2019-05-09T07:37:02.182Z,13.14
2019-05-09T07:38:02.189Z,13.08
2019-05-09T07:39:02.186Z,13.10
2019-05-09T07:40:02.238Z,13.03
2019-05-09T07:41:02.142Z,13.01
2019-05-09T07:42:02.129Z,13.00
2019-05-09T07:43:02.116Z,12.96
2019-05-09T07:44:02.124Z,13.10
2019-05-09T07:45:02.105Z,13.10
2019-05-09T07:46:02.130Z,13.17
2019-05-09T07:47:02.067Z,13.12
2019-05-09T07:48:02.064Z,13.12
2019-05-09T07:49:02.056Z,13.15
2019-05-09T07:50:02.062Z,13.22
2019-05-09T07:51:02.048Z,13.41
2019-05-09T07:52:06.707Z,13.44
2019-05-09T07:53:03.004Z,13.49
2019-05-09T07:54:16.345Z,13.51
2019-05-09T07:55:02.003Z,13.63
2019-05-09T07:56:02.003Z,13.54
2019-05-09T07:57:01.988Z,13.63
2019-05-09T07:58:01.991Z,13.64
2019-05-09T07:59:01.940Z,13.67
2019-05-09T08:00:01.925Z,13.69
2019-05-09T08:01:02.017Z,13.70
2019-05-09T08:02:01.948Z,13.70
2019-05-09T08:03:01.918Z,13.70
2019-05-09T08:04:01.879Z,13.66
2019-05-09T08:05:01.869Z,13.71
2019-05-09T08:06:01.855Z,13.87
2019-05-09T08:07:01.894Z,13.91
2019-05-09T08:08:01.848Z,14.04
2019-05-09T08:09:01.851Z,14.24
2019-05-09T08:10:01.881Z,14.33
2019-05-09T08:11:01.824Z,14.46
2019-05-09T08:12:01.792Z,14.52
2019-05-09T08:13:01.823Z,14.46
2019-05-09T08:14:02.744Z,14.54
2019-05-09T08:15:16.605Z,14.57
2019-05-09T08:16:02.830Z,14.46
2019-05-09T08:17:01.734Z,14.47
2019-05-09T08:18:01.724Z,14.45
2019-05-09T08:19:01.730Z,14.35
2019-05-09T08:20:01.717Z,14.37
2019-05-09T08:21:01.694Z,14.32
2019-05-09T08:22:01.740Z,14.42
2019-05-09T08:23:02.446Z,14.50
2019-05-09T08:24:01.661Z,14.47
2019-05-09T08:25:01.676Z,14.43
2019-05-09T08:26:04.425Z,14.42
2019-05-09T08:27:01.669Z,14.36
2019-05-09T08:28:01.604Z,14.47
2019-05-09T08:29:01.598Z,14.54
2019-05-09T08:30:01.605Z,14.54
2019-05-09T08:31:01.598Z,14.57
2019-05-09T08:32:01.585Z,14.57
2019-05-09T08:33:01.597Z,14.55
2019-05-09T08:34:01.562Z,14.58
2019-05-09T08:35:01.533Z,14.65
2019-05-09T08:36:01.558Z,14.69
2019-05-09T08:37:01.524Z,14.88
2019-05-09T08:38:01.534Z,14.89
2019-05-09T08:39:01.489Z,14.92
2019-05-09T08:40:01.502Z,14.92
2019-05-09T08:41:01.476Z,15.01
2019-05-09T08:42:01.480Z,14.84
2019-05-09T08:43:01.456Z,14.89
2019-05-09T08:44:01.460Z,14.83
2019-05-09T08:45:01.463Z,14.99
2019-05-09T08:46:02.640Z,15.02
2019-05-09T08:47:01.397Z,15.01
2019-05-09T08:48:01.490Z,15.03
2019-05-09T08:49:01.401Z,15.01
2019-05-09T08:50:01.363Z,15.09
2019-05-09T08:51:01.350Z,15.09
2019-05-09T08:52:15.539Z,15.21
2019-05-09T08:53:02.353Z,15.19
2019-05-09T08:54:01.335Z,15.14
2019-05-09T08:55:01.322Z,15.23
2019-05-09T08:56:01.296Z,15.27
2019-05-09T08:57:01.307Z,15.25
2019-05-09T08:58:01.287Z,15.11
2019-05-09T08:59:02.342Z,15.19
2019-05-09T09:00:01.270Z,15.21
2019-05-09T09:01:04.137Z,15.23
2019-05-09T09:02:14.777Z,15.21
2019-05-09T09:03:02.250Z,15.11
2019-05-09T09:04:01.204Z,15.14
2019-05-09T09:05:01.213Z,15.21
2019-05-09T09:06:01.207Z,15.14
2019-05-09T09:07:01.196Z,15.10
2019-05-09T09:08:01.165Z,15.06
2019-05-09T09:09:01.185Z,14.92
2019-05-09T09:10:01.142Z,14.86
2019-05-09T09:11:01.169Z,14.75
2019-05-09T09:12:01.126Z,14.68
2019-05-09T09:13:01.133Z,14.68
2019-05-09T09:14:01.096Z,14.65
2019-05-09T09:15:01.086Z,14.72
2019-05-09T09:16:14.423Z,14.86
2019-05-09T09:17:01.089Z,15.01
2019-05-09T09:18:01.067Z,15.16
2019-05-09T09:19:01.041Z,15.41
2019-05-09T09:20:01.035Z,15.57
2019-05-09T09:21:01.023Z,15.67
2019-05-09T09:22:01.048Z,15.89
2019-05-09T09:23:01.017Z,15.93
2019-05-09T09:24:01.003Z,15.94
2019-05-09T09:25:01.010Z,16.00
2019-05-09T09:26:00.986Z,16.09
2019-05-09T09:27:00.956Z,16.20
2019-05-09T09:28:01.287Z,16.15
2019-05-09T09:29:00.941Z,16.25
2019-05-09T09:30:16.508Z,16.15
2019-05-09T09:31:01.908Z,16.08
2019-05-09T09:32:00.904Z,16.23
2019-05-09T09:33:00.913Z,16.12
2019-05-09T09:34:00.890Z,16.15
2019-05-09T09:35:00.873Z,16.17
2019-05-09T09:36:00.874Z,16.11
2019-05-09T09:37:03.809Z,16.04
2019-05-09T09:38:00.830Z,16.21
2019-05-09T09:39:03.024Z,16.42
2019-05-09T09:40:00.821Z,16.45
2019-05-09T09:41:00.820Z,16.50
2019-05-09T09:42:00.806Z,16.61
2019-05-09T09:43:00.786Z,16.73
2019-05-09T09:44:00.761Z,16.83
2019-05-09T09:45:00.749Z,17.06
2019-05-09T09:46:10.283Z,17.01
2019-05-09T09:47:00.746Z,17.06
2019-05-09T09:48:00.746Z,17.01
2019-05-09T09:49:00.716Z,16.83
2019-05-09T09:50:00.718Z,16.70
2019-05-09T09:51:00.712Z,16.63
2019-05-09T09:52:00.686Z,16.42
2019-05-09T09:53:00.677Z,16.39
2019-05-09T09:54:00.684Z,16.46
2019-05-09T09:55:00.637Z,16.34
2019-05-09T09:56:00.629Z,16.41
2019-05-09T09:57:00.636Z,16.33
2019-05-09T09:58:00.629Z,16.33
2019-05-09T09:59:00.627Z,16.31
2019-05-09T10:00:00.588Z,16.28
2019-05-09T10:01:03.406Z,16.20
2019-05-09T10:02:00.579Z,16.04
2019-05-09T10:03:00.574Z,16.01
2019-05-09T10:04:15.663Z,15.93
2019-05-09T10:05:00.566Z,15.78
2019-05-09T10:06:00.521Z,15.71
2019-05-09T10:07:00.515Z,15.62
2019-05-09T10:08:00.524Z,15.64
2019-05-09T10:09:00.485Z,15.57
2019-05-09T10:10:00.500Z,15.57
2019-05-09T10:11:00.490Z,15.51
2019-05-09T10:12:00.933Z,15.46
2019-05-09T10:13:03.833Z,15.46
2019-05-09T10:14:00.439Z,15.46
2019-05-09T10:15:00.435Z,15.50
2019-05-09T10:16:00.427Z,15.60
2019-05-09T10:17:00.416Z,15.76
2019-05-09T10:18:00.383Z,15.89
2019-05-09T10:19:00.377Z,16.11
2019-05-09T10:20:00.364Z,16.31
2019-05-09T10:21:00.368Z,16.39
2019-05-09T10:22:00.354Z,16.38
2019-05-09T10:23:11.015Z,16.42
2019-05-09T10:24:00.381Z,16.45
2019-05-09T10:25:00.304Z,16.46
2019-05-09T10:26:00.295Z,16.38
2019-05-09T10:27:00.293Z,16.25
2019-05-09T10:28:00.302Z,16.21
2019-05-09T10:29:00.261Z,15.97
2019-05-09T10:30:00.253Z,15.84
2019-05-09T10:31:00.247Z,15.80
2019-05-09T10:32:00.236Z,15.82
2019-05-09T10:33:00.226Z,15.76
2019-05-09T10:34:00.221Z,15.80
2019-05-09T10:35:00.226Z,15.76
2019-05-09T10:36:04.214Z,15.76
2019-05-09T10:37:00.189Z,15.84
2019-05-09T10:38:00.169Z,15.80
2019-05-09T10:39:00.161Z,15.86
2019-05-09T10:40:00.158Z,15.75
2019-05-09T10:41:01.779Z,15.68
2019-05-09T10:42:00.115Z,15.65
2019-05-09T10:43:00.106Z,15.67
2019-05-09T10:44:00.110Z,15.46
2019-05-09T10:45:00.103Z,15.36
2019-05-09T10:46:00.129Z,15.23
2019-05-09T10:47:02.108Z,15.14
2019-05-09T10:48:00.049Z,15.20
2019-05-09T10:49:00.054Z,15.07
2019-05-09T10:50:00.041Z,15.07
2019-05-09T10:51:04.081Z,15.09
2019-05-09T10:52:01.012Z,15.01
2019-05-09T10:52:59.993Z,14.98
2019-05-09T10:53:59.983Z,14.99
2019-05-09T10:54:59.978Z,14.96
2019-05-09T10:55:59.975Z,14.99
2019-05-09T10:56:59.989Z,14.96
2019-05-09T10:58:02.238Z,14.96
2019-05-09T10:58:59.936Z,14.94
2019-05-09T10:59:59.922Z,14.94
2019-05-09T11:00:59.907Z,14.89
2019-05-09T11:01:59.918Z,14.94
2019-05-09T11:03:00.314Z,14.86
2019-05-09T11:03:59.875Z,14.78
2019-05-09T11:04:59.859Z,14.64
2019-05-09T11:05:59.854Z,14.64
2019-05-09T11:06:59.867Z,14.57
2019-05-09T11:07:59.870Z,14.55
2019-05-09T11:08:59.830Z,14.45
2019-05-09T11:09:59.829Z,14.50
2019-05-09T11:10:59.809Z,14.51
2019-05-09T11:12:01.205Z,14.51
2019-05-09T11:12:59.788Z,14.35
2019-05-09T11:13:59.807Z,14.35
2019-05-09T11:14:59.791Z,14.32
2019-05-09T11:15:59.792Z,14.15
2019-05-09T11:17:10.728Z,14.17
2019-05-09T11:17:59.730Z,14.07
2019-05-09T11:18:59.751Z,14.00
2019-05-09T11:19:59.733Z,14.02
2019-05-09T11:20:59.719Z,13.96
2019-05-09T11:21:59.693Z,13.84
2019-05-09T11:22:59.677Z,13.63
2019-05-09T11:23:59.653Z,13.55
2019-05-09T11:24:59.661Z,13.60
2019-05-09T11:25:59.706Z,13.70
2019-05-09T11:26:59.639Z,13.66
2019-05-09T11:28:11.058Z,13.87
2019-05-09T11:28:59.615Z,13.92
2019-05-09T11:29:59.605Z,14.14
2019-05-09T11:30:59.584Z,14.18
2019-05-09T11:31:59.590Z,14.10
2019-05-09T11:32:59.878Z,14.14
2019-05-09T11:33:59.562Z,14.27
2019-05-09T11:34:59.549Z,14.33
2019-05-09T11:35:59.517Z,14.33
2019-05-09T11:36:59.509Z,14.32
2019-05-09T11:37:59.517Z,14.22
2019-05-09T11:39:00.849Z,14.14
2019-05-09T11:39:59.470Z,14.06
2019-05-09T11:40:59.465Z,14.06
2019-05-09T11:41:59.457Z,13.96
2019-05-09T11:42:59.452Z,13.95
2019-05-09T11:43:59.829Z,13.75
2019-05-09T11:44:59.420Z,13.84
2019-05-09T11:45:59.469Z,13.85
2019-05-09T11:46:59.388Z,13.96
2019-05-09T11:47:59.396Z,13.99
2019-05-09T11:48:59.385Z,14.06
2019-05-09T11:49:59.371Z,14.15
2019-05-09T11:50:59.353Z,14.20
2019-05-09T11:51:59.339Z,14.20
2019-05-09T11:53:00.132Z,14.22
2019-05-09T11:53:59.331Z,14.25
2019-05-09T11:54:59.341Z,14.27
2019-05-09T11:55:59.323Z,14.33
2019-05-09T11:56:59.371Z,14.12
2019-05-09T11:57:59.353Z,14.20
2019-05-09T11:58:59.259Z,14.24
2019-05-09T11:59:59.269Z,14.12
2019-05-09T12:01:02.455Z,14.20
2019-05-09T12:01:59.224Z,14.14
2019-05-09T12:02:59.217Z,14.22
2019-05-09T12:03:59.212Z,14.29
2019-05-09T12:04:59.201Z,14.33
2019-05-09T12:05:59.185Z,14.43
2019-05-09T12:06:59.189Z,14.46
2019-05-09T12:07:59.218Z,14.50
2019-05-09T12:08:59.238Z,14.58
2019-05-09T12:09:59.167Z,14.55
2019-05-09T12:10:59.126Z,14.58
2019-05-09T12:11:59.259Z,14.62
2019-05-09T12:12:59.118Z,14.69
2019-05-09T12:13:59.097Z,14.81
2019-05-09T12:14:59.091Z,14.86
2019-05-09T12:15:59.081Z,14.84
2019-05-09T12:16:59.067Z,14.95
2019-05-09T12:18:05.388Z,15.03
2019-05-09T12:19:00.029Z,15.14
2019-05-09T12:20:09.411Z,15.16
2019-05-09T12:21:00.345Z,15.13
2019-05-09T12:21:59.160Z,15.32
2019-05-09T12:22:59.018Z,15.35
2019-05-09T12:23:59.016Z,15.32
2019-05-09T12:24:59.358Z,15.41
2019-05-09T12:25:58.969Z,15.50
2019-05-09T12:27:02.913Z,15.64
2019-05-09T12:27:58.937Z,15.76
2019-05-09T12:28:58.940Z,15.87
2019-05-09T12:29:58.941Z,16.05
2019-05-09T12:30:58.926Z,16.08
2019-05-09T12:31:58.929Z,16.14
2019-05-09T12:32:59.183Z,16.24
2019-05-09T12:33:59.683Z,16.27
2019-05-09T12:34:58.866Z,16.31
2019-05-09T12:35:59.456Z,16.21
2019-05-09T12:36:58.832Z,16.41
2019-05-09T12:37:58.824Z,16.33
2019-05-09T12:38:59.450Z,16.15
2019-05-09T12:39:58.805Z,16.17
2019-05-09T12:41:00.591Z,16.12
2019-05-09T12:41:58.827Z,16.07
2019-05-09T12:42:58.807Z,15.86
2019-05-09T12:43:58.754Z,15.89
2019-05-09T12:44:59.117Z,15.76
2019-05-09T12:45:58.748Z,15.71
2019-05-09T12:46:58.733Z,15.62
2019-05-09T12:48:10.220Z,15.67
2019-05-09T12:48:59.699Z,15.65
2019-05-09T12:50:02.655Z,15.75
2019-05-09T12:50:59.215Z,15.60
2019-05-09T12:51:59.096Z,15.64
2019-05-09T12:52:58.671Z,15.71
2019-05-09T12:53:58.671Z,15.83
2019-05-09T12:54:59.328Z,15.84
2019-05-09T12:55:58.651Z,15.96
2019-05-09T12:56:59.249Z,16.15
2019-05-09T12:57:59.442Z,16.17
2019-05-09T12:58:58.609Z,16.27
2019-05-09T12:59:58.864Z,16.30
2019-05-09T13:00:58.714Z,16.24
2019-05-09T13:01:58.552Z,16.31
2019-05-09T13:02:59.446Z,16.33
2019-05-09T13:03:58.558Z,16.30